Search for airport 
image banner adimage banner adimage banner ad
image banner ad

76CN - El Centro Rgnl Medical Center

Located in El Centro, United States

ICAO - 76CN, IATA -

Data provided by Airmate  

General information

Coordinates: N32°46'47" W115°34'7"
Elevation is 75 feet MSL.
 
View others Airports in California

Operational data

Special qualification required
Current time UTC:
Current local time:
Weather at : KIPL - Imperial County ( 6 km )
METAR: KIPL 231453Z AUTO 25004KT 10SM 28/18 A2981 RMK AO2 SLP095 T02780183 53007 $
TAF: KIPL 231120Z 2312/2412 13005KT P6SM FEW250 FM231600 VRB04KT P6SM SCT250 FM232000 14009G15KT P6SM SCT100 SCT150 BKN200 FM240200 VRB06KT P6SM FEW100 SCT200
View NOTAMs / SUP AIP / TFR affecting this airport [VIEW]
Communications frequencies: [VIEW]

Runways:

Airport contact information

Address: El Centro United States

Satellite view of 76CN